Time;durP1;ratioP1;P1;durP2;ratioP2;P2;SDS_P1;SDS_P2;PMS_P1;PMS_P2;Temp;Humidity;BMP_temperature;BMP_pressure;BME280_temperature;BME280_humidity;BME280_pressure;Samples;Min_cycle;Max_cycle;Signal;HPM_P1;HPM_P2
2023/12/19 00:02:09;;;;;;;20.70;12.88;;;11.20;68.80;12.80;102284.00;;;;5021250;28;20200;-77
2023/12/19 00:04:36;;;;;;;16.80;11.93;;;11.20;68.90;12.90;102294.00;;;;5022859;28;20201;-77
2023/12/19 00:07:03;;;;;;;22.98;13.30;;;11.20;68.90;12.90;102284.00;;;;5026635;28;20624;-77
2023/12/19 00:09:30;;;;;;;19.20;12.80;;;11.20;68.90;12.90;102272.00;;;;5028145;28;20609;-78
2023/12/19 00:11:57;;;;;;;19.90;12.57;;;11.20;69.00;12.90;102267.00;;;;5026425;28;20213;-77
2023/12/19 00:14:25;;;;;;;16.35;11.45;;;11.20;69.00;12.90;102263.00;;;;5021357;28;20200;-77
2023/12/19 00:16:52;;;;;;;19.33;13.15;;;11.20;69.00;12.90;102256.00;;;;5026667;28;20299;-77
2023/12/19 00:19:20;;;;;;;19.50;13.35;;;11.20;69.00;12.90;102254.00;;;;5027632;28;20208;-77
2023/12/19 00:21:47;;;;;;;20.30;13.27;;;11.20;69.10;12.90;102240.00;;;;5028646;28;20203;-77
2023/12/19 00:24:14;;;;;;;20.80;12.65;;;11.20;69.10;12.90;102237.00;;;;5026265;28;20232;-77
2023/12/19 00:26:41;;;;;;;20.33;12.43;;;11.20;69.10;12.90;102243.00;;;;5024159;28;20204;-78
2023/12/19 00:29:08;;;;;;;21.50;13.02;;;11.20;69.10;12.90;102239.00;;;;5010475;28;20216;-77
2023/12/19 00:31:35;;;;;;;18.42;12.57;;;11.20;69.10;12.90;102241.00;;;;5010006;28;20663;-77
2023/12/19 00:34:02;;;;;;;15.75;11.60;;;11.20;69.10;12.90;102237.00;;;;5007985;28;20209;-76
2023/12/19 00:36:30;;;;;;;18.30;12.88;;;11.20;69.10;12.90;102221.00;;;;5023721;28;20193;-77
2023/12/19 00:38:57;;;;;;;20.92;12.30;;;11.20;69.10;12.90;102215.00;;;;5027092;28;20203;-77
2023/12/19 00:41:24;;;;;;;19.02;12.73;;;11.20;69.20;12.90;102212.00;;;;5026714;28;20574;-78
2023/12/19 00:43:51;;;;;;;20.20;13.35;;;11.20;69.20;12.90;102205.00;;;;5025932;28;20335;-77
2023/12/19 00:46:18;;;;;;;19.13;13.52;;;11.20;69.10;12.90;102197.00;;;;5028614;28;20200;-77
2023/12/19 00:48:45;;;;;;;19.92;13.48;;;11.20;69.10;12.90;102192.00;;;;5028944;28;21013;-76
2023/12/19 00:51:12;;;;;;;19.20;13.55;;;11.20;69.20;12.90;102195.00;;;;5030714;28;20287;-77
2023/12/19 00:53:42;;;;;;;21.92;13.13;;;11.20;69.20;12.90;102196.00;;;;5027433;28;20690;-77
2023/12/19 00:56:11;;;;;;;17.23;12.30;;;11.20;69.20;12.90;102203.00;;;;5023575;28;20203;-77
2023/12/19 00:58:39;;;;;;;18.83;12.77;;;11.20;69.20;12.90;102216.00;;;;5024240;28;20228;-77
2023/12/19 01:01:08;;;;;;;18.48;12.60;;;11.20;69.20;12.90;102207.00;;;;5008675;28;20235;-77
2023/12/19 01:03:35;;;;;;;20.48;11.55;;;11.20;69.30;12.90;102200.00;;;;5008771;28;20217;-77
2023/12/19 01:06:05;;;;;;;19.05;11.75;;;11.20;69.30;12.90;102199.00;;;;5024606;28;20208;-77
2023/12/19 01:08:33;;;;;;;21.17;13.75;;;11.20;69.40;12.90;102190.00;;;;5023952;28;20291;-76
2023/12/19 01:11:02;;;;;;;22.35;12.82;;;11.30;69.40;12.90;102179.00;;;;5015734;28;20201;-77
2023/12/19 01:13:29;;;;;;;21.33;13.55;;;11.20;69.40;12.90;102165.00;;;;5009934;28;20209;-77
2023/12/19 01:15:56;;;;;;;24.25;13.07;;;11.20;70.10;12.90;102191.00;;;;5022797;28;20565;-77
2023/12/19 01:18:23;;;;;;;22.13;13.50;;;11.20;69.40;12.90;102182.00;;;;5027560;28;20207;-77
2023/12/19 01:20:50;;;;;;;21.98;14.52;;;11.20;69.40;12.90;102175.00;;;;5026161;28;20593;-76
2023/12/19 01:23:17;;;;;;;20.13;13.15;;;11.20;69.50;12.90;102178.00;;;;5027862;28;20597;-77
2023/12/19 01:25:44;;;;;;;26.23;14.38;;;11.30;69.60;12.90;102184.00;;;;5024164;28;20196;-77
2023/12/19 01:28:13;;;;;;;22.05;13.35;;;11.20;69.60;12.90;102172.00;;;;5026215;28;20200;-77
2023/12/19 01:30:41;;;;;;;21.75;13.65;;;11.30;69.60;12.90;102171.00;;;;5026824;28;20203;-77
2023/12/19 01:33:09;;;;;;;22.02;13.57;;;11.30;69.60;12.90;102176.00;;;;5023367;28;20323;-77
2023/12/19 01:35:36;;;;;;;23.23;14.05;;;11.30;69.60;12.90;102172.00;;;;5027845;28;20287;-77
2023/12/19 01:38:04;;;;;;;23.85;14.50;;;11.30;69.70;12.90;102176.00;;;;5027295;28;20201;-77
2023/12/19 01:40:31;;;;;;;21.95;13.80;;;11.30;69.60;12.90;102171.00;;;;5027265;28;20208;-76
2023/12/19 01:42:58;;;;;;;20.55;13.65;;;11.30;69.60;13.00;102173.00;;;;5014948;28;20274;-77
2023/12/19 01:45:30;;;;;;;17.42;11.85;;;11.30;69.60;12.90;102168.00;;;;5007817;28;20251;-77
2023/12/19 01:47:58;;;;;;;20.95;13.43;;;11.30;69.70;13.00;102165.00;;;;5022711;28;20204;-77
2023/12/19 01:50:25;;;;;;;23.10;14.73;;;11.30;69.70;13.00;102179.00;;;;5030014;28;20581;-76
2023/12/19 01:52:55;;;;;;;24.73;14.38;;;11.30;69.80;13.00;102157.00;;;;5015694;28;20201;-77
2023/12/19 01:55:25;;;;;;;20.60;13.90;;;11.30;69.70;12.90;102142.00;;;;5025930;28;20204;-77
2023/12/19 01:57:54;;;;;;;17.60;11.90;;;11.30;69.70;13.00;102154.00;;;;5029922;28;20224;-77
2023/12/19 02:00:21;;;;;;;21.02;14.52;;;11.30;69.70;13.00;102149.00;;;;5030671;28;20224;-77
2023/12/19 02:02:51;;;;;;;22.00;12.75;;;11.30;69.70;12.90;102146.00;;;;5025458;28;20232;-77
2023/12/19 02:05:19;;;;;;;23.33;13.57;;;11.30;69.80;13.00;102134.00;;;;5031052;28;20670;-77
2023/12/19 02:07:47;;;;;;;20.52;14.05;;;11.30;69.70;13.00;102155.00;;;;5024850;28;20189;-77
2023/12/19 02:10:15;;;;;;;19.80;13.63;;;11.30;69.70;12.90;102157.00;;;;5030737;28;20207;-77
2023/12/19 02:12:43;;;;;;;22.73;13.75;;;11.30;69.80;12.90;102151.00;;;;5031024;28;20203;-77
2023/12/19 02:15:10;;;;;;;19.20;12.80;;;11.30;69.90;12.90;102150.00;;;;5030479;28;20761;-76
2023/12/19 02:17:37;;;;;;;21.02;13.10;;;11.30;69.90;13.00;102136.00;;;;5029382;28;20204;-76
2023/12/19 02:20:08;;;;;;;20.38;13.70;;;11.30;69.90;12.90;102135.00;;;;5029706;28;20196;-77
2023/12/19 02:22:35;;;;;;;18.42;12.68;;;11.30;70.00;13.00;102129.00;;;;5030128;28;20271;-77
2023/12/19 02:25:04;;;;;;;19.38;13.07;;;11.30;70.00;12.90;102125.00;;;;5029166;28;20204;-76
2023/12/19 02:27:33;;;;;;;20.42;13.13;;;11.30;70.00;13.00;102116.00;;;;5024043;28;20208;-77
2023/12/19 02:29:59;;;;;;;18.60;12.60;;;11.30;70.00;13.00;102099.00;;;;5027502;28;20200;-76
2023/12/19 02:32:26;;;;;;;18.90;12.85;;;11.30;70.00;13.00;102107.00;;;;5027925;28;20582;-77
2023/12/19 02:34:53;;;;;;;18.00;12.50;;;11.30;70.10;13.00;102093.00;;;;5028636;28;20206;-77
2023/12/19 02:37:20;;;;;;;20.38;13.82;;;11.40;70.10;13.00;102097.00;;;;5023708;28;20204;-78
2023/12/19 02:39:47;;;;;;;19.38;13.30;;;11.40;70.10;13.00;102086.00;;;;5021360;28;20558;-77
2023/12/19 02:42:16;;;;;;;24.17;13.88;;;11.40;70.20;13.00;102083.00;;;;5029670;28;20205;-77
2023/12/19 02:44:43;;;;;;;22.38;13.90;;;11.40;70.30;13.10;102088.00;;;;5028657;28;20226;-77
2023/12/19 02:47:10;;;;;;;19.63;12.80;;;11.40;70.30;13.10;102067.00;;;;5028079;28;20545;-78
2023/12/19 02:49:37;;;;;;;18.73;12.95;;;11.40;70.30;13.10;102069.00;;;;5028624;28;20591;-78
2023/12/19 02:52:04;;;;;;;21.38;14.35;;;11.40;70.20;13.10;102061.00;;;;5028257;28;20197;-78
2023/12/19 02:54:31;;;;;;;18.30;12.57;;;11.40;70.30;13.10;102048.00;;;;5029089;28;20200;-78
2023/12/19 02:56:58;;;;;;;15.80;11.85;;;11.50;70.30;13.10;102045.00;;;;5026442;28;20955;-78
2023/12/19 02:59:27;;;;;;;18.70;12.73;;;11.50;70.30;13.10;102049.00;;;;5027919;28;20327;-78
2023/12/19 03:01:53;;;;;;;19.30;12.73;;;11.50;70.30;13.10;102055.00;;;;5028795;28;20204;-77
2023/12/19 03:04:20;;;;;;;19.25;12.32;;;11.50;70.20;13.10;102049.00;;;;5029319;28;20224;-78
2023/12/19 03:06:47;;;;;;;20.60;12.30;;;11.50;70.20;13.10;102041.00;;;;5027916;28;20200;-77
2023/12/19 03:09:14;;;;;;;21.85;13.65;;;11.50;70.20;13.10;102035.00;;;;5022798;28;20201;-78
2023/12/19 03:11:59;;;;;;;18.13;12.23;;;11.50;70.20;13.10;102031.00;;;;5024955;28;20216;-78
2023/12/19 03:14:28;;;;;;;19.25;11.73;;;11.50;70.20;13.10;102022.00;;;;5028860;28;20670;-77
2023/12/19 03:16:55;;;;;;;20.33;13.15;;;11.50;70.30;13.20;102018.00;;;;5029147;28;20208;-78
2023/12/19 03:19:22;;;;;;;22.80;13.13;;;11.50;70.30;13.20;102011.00;;;;5022069;28;20228;-78
2023/12/19 03:21:49;;;;;;;18.73;12.00;;;11.50;70.30;13.20;102011.00;;;;5029389;28;20219;-78
2023/12/19 03:24:16;;;;;;;19.60;12.73;;;11.60;70.40;13.20;102016.00;;;;5028161;28;20597;-77
2023/12/19 03:26:42;;;;;;;18.20;12.93;;;11.60;71.10;13.20;102017.00;;;;5028312;28;20211;-77
2023/12/19 03:29:11;;;;;;;18.95;12.63;;;11.60;70.40;13.20;102011.00;;;;5027169;28;20568;-78
2023/12/19 03:31:39;;;;;;;19.98;13.52;;;11.60;70.40;13.20;102007.00;;;;5019931;28;20212;-77
2023/12/19 03:34:06;;;;;;;19.85;13.40;;;11.60;70.40;13.20;102005.00;;;;5022728;28;20207;-78
2023/12/19 03:36:33;;;;;;;19.63;13.10;;;11.60;70.40;13.20;101998.00;;;;5027959;28;21634;-77
2023/12/19 03:39:00;;;;;;;18.77;13.50;;;11.60;70.40;13.30;101990.00;;;;5028097;28;20578;-78
2023/12/19 03:41:27;;;;;;;19.85;12.68;;;11.60;70.40;13.30;101997.00;;;;5014745;28;20196;-78
2023/12/19 03:43:54;;;;;;;19.08;12.50;;;11.60;70.40;13.30;101978.00;;;;5028549;28;20224;-78
2023/12/19 03:46:21;;;;;;;20.15;13.10;;;11.60;70.30;13.30;101974.00;;;;5028690;28;20208;-78
2023/12/19 03:48:49;;;;;;;17.70;12.50;;;11.60;70.30;13.30;101966.00;;;;5027372;28;20196;-78
2023/12/19 03:51:17;;;;;;;24.63;12.73;;;11.60;70.30;13.30;101964.00;;;;5027992;28;20193;-78
2023/12/19 03:53:43;;;;;;;17.90;11.80;;;11.70;70.40;13.30;101966.00;;;;5027655;28;20212;-78
2023/12/19 03:56:10;;;;;;;21.63;13.30;;;11.70;70.30;13.30;101956.00;;;;5027935;28;20223;-77
2023/12/19 03:58:39;;;;;;;18.85;12.60;;;11.70;70.40;13.30;101946.00;;;;5025697;28;20220;-77
2023/12/19 04:01:06;;;;;;;22.02;12.98;;;11.60;70.30;13.30;101953.00;;;;5027049;28;20716;-78
2023/12/19 04:03:33;;;;;;;17.92;11.60;;;11.70;70.40;13.30;101936.00;;;;5028338;28;20230;-77
2023/12/19 04:06:02;;;;;;;19.73;13.23;;;11.70;70.50;13.30;101938.00;;;;5027775;28;20270;-77
2023/12/19 04:08:29;;;;;;;16.83;13.27;;;11.70;70.40;13.30;101922.00;;;;5028153;28;20284;-78
2023/12/19 04:10:56;;;;;;;15.63;10.90;;;11.70;70.40;13.30;101928.00;;;;5020031;28;20196;-77
2023/12/19 04:13:22;;;;;;;18.00;11.95;;;11.70;70.40;13.30;101919.00;;;;5015272;28;20831;-77
2023/12/19 04:15:49;;;;;;;17.30;11.50;;;11.70;70.40;13.30;101911.00;;;;5012668;28;20204;-78
2023/12/19 04:18:17;;;;;;;15.35;11.45;;;11.70;70.40;13.30;101921.00;;;;5027971;28;20747;-77
2023/12/19 04:20:44;;;;;;;17.85;12.43;;;11.70;70.40;13.30;101932.00;;;;5027791;28;20204;-78
2023/12/19 04:23:13;;;;;;;16.98;11.05;;;11.70;70.50;13.30;101917.00;;;;5028395;28;20587;-78
2023/12/19 04:25:40;;;;;;;15.85;11.85;;;11.70;70.40;13.40;101904.00;;;;5026203;28;20196;-78
2023/12/19 04:28:07;;;;;;;15.30;11.52;;;11.70;70.50;13.40;101913.00;;;;5027331;28;20207;-78
2023/12/19 04:30:34;;;;;;;18.75;11.95;;;11.70;70.50;13.40;101898.00;;;;5028051;28;20204;-78
2023/12/19 04:33:02;;;;;;;16.33;11.75;;;11.70;70.50;13.40;101905.00;;;;5012366;28;20209;-78
2023/12/19 04:35:29;;;;;;;16.10;11.25;;;11.70;70.50;13.40;101903.00;;;;5028923;28;20185;-78
2023/12/19 04:37:56;;;;;;;14.70;11.25;;;11.70;70.50;13.40;101891.00;;;;5028040;28;20283;-77
2023/12/19 04:40:24;;;;;;;15.52;11.27;;;11.70;70.50;13.40;101892.00;;;;5027683;28;20227;-78
2023/12/19 04:42:51;;;;;;;17.52;11.40;;;11.80;70.50;13.40;101882.00;;;;5027194;28;20210;-78
2023/12/19 04:45:18;;;;;;;16.73;11.70;;;11.80;70.50;13.40;101884.00;;;;5027524;28;20224;-78
2023/12/19 04:47:45;;;;;;;16.30;11.40;;;11.80;70.50;13.40;101886.00;;;;5027920;28;20211;-78
2023/12/19 04:50:12;;;;;;;15.88;10.90;;;11.80;70.50;13.40;101891.00;;;;5027657;28;20682;-78
2023/12/19 04:52:39;;;;;;;14.00;10.32;;;11.80;70.50;13.50;101890.00;;;;5014974;28;20204;-78
2023/12/19 04:55:07;;;;;;;15.23;11.15;;;11.80;70.50;13.50;101877.00;;;;5015119;28;20205;-78
2023/12/19 04:57:35;;;;;;;13.15;10.32;;;11.80;70.50;13.50;101880.00;;;;5027367;28;20236;-77
2023/12/19 05:00:04;;;;;;;14.23;10.38;;;11.80;70.50;13.50;101874.00;;;;5027426;28;20616;-78
2023/12/19 05:02:31;;;;;;;12.27;9.95;;;11.80;70.50;13.50;101874.00;;;;5015794;28;20240;-78
2023/12/19 05:04:58;;;;;;;14.27;10.13;;;11.80;70.50;13.50;101864.00;;;;5023495;28;20231;-78
2023/12/19 05:07:25;;;;;;;12.50;9.95;;;11.80;70.50;13.50;101870.00;;;;5027692;28;20208;-78
2023/12/19 05:09:52;;;;;;;13.73;9.18;;;11.80;70.50;13.50;101860.00;;;;5027701;28;20200;-77
2023/12/19 05:12:19;;;;;;;13.50;9.90;;;11.80;70.50;13.50;101865.00;;;;5021556;28;20205;-78
2023/12/19 05:14:47;;;;;;;12.95;9.73;;;11.80;70.50;13.50;101857.00;;;;5026551;28;20275;-77
2023/12/19 05:17:14;;;;;;;8.82;7.90;;;11.80;70.50;13.50;101862.00;;;;5028156;28;20208;-78
2023/12/19 05:19:41;;;;;;;11.23;8.65;;;11.80;70.50;13.50;101851.00;;;;5026538;28;20200;-79
2023/12/19 05:22:08;;;;;;;11.90;8.75;;;11.80;70.50;13.50;101850.00;;;;5026779;28;20695;-78
2023/12/19 05:24:37;;;;;;;11.13;8.23;;;11.90;70.60;13.50;101845.00;;;;5028462;28;20235;-78
2023/12/19 05:27:05;;;;;;;10.85;7.88;;;11.90;70.60;13.50;101856.00;;;;5030294;28;20196;-78
2023/12/19 05:29:32;;;;;;;11.82;9.13;;;11.90;70.60;13.50;101852.00;;;;5031219;28;20204;-77
2023/12/19 05:32:00;;;;;;;10.73;8.57;;;11.90;70.60;13.50;101853.00;;;;5029994;28;20705;-78
2023/12/19 05:34:27;;;;;;;9.60;7.82;;;11.90;70.60;13.50;101851.00;;;;5028908;28;20258;-78
2023/12/19 05:36:54;;;;;;;11.25;8.57;;;11.80;70.50;13.50;101846.00;;;;5031358;28;20201;-77
2023/12/19 05:39:21;;;;;;;13.48;10.50;;;11.90;70.60;13.50;101843.00;;;;5030007;28;20208;-78
2023/12/19 05:41:48;;;;;;;12.35;9.80;;;11.90;70.70;13.50;101845.00;;;;5028845;28;21027;-77
2023/12/19 05:44:16;;;;;;;13.90;10.65;;;11.90;70.80;13.50;101840.00;;;;5020922;28;20220;-77
2023/12/19 05:46:43;;;;;;;13.27;10.32;;;11.90;70.80;13.50;101845.00;;;;5016005;28;20200;-77
2023/12/19 05:49:12;;;;;;;14.48;9.82;;;11.90;70.80;13.50;101837.00;;;;5030414;28;20203;-77
2023/12/19 05:51:40;;;;;;;12.32;9.75;;;11.90;70.90;13.60;101843.00;;;;5029905;28;20201;-77
2023/12/19 05:54:08;;;;;;;14.77;11.85;;;11.90;70.90;13.60;101840.00;;;;5030012;28;20291;-78
2023/12/19 05:56:35;;;;;;;16.70;11.77;;;11.90;71.00;13.60;101854.00;;;;5029118;28;20212;-77
2023/12/19 05:59:02;;;;;;;12.15;10.43;;;12.00;71.10;13.60;101842.00;;;;5029923;28;20732;-77
2023/12/19 06:01:29;;;;;;;12.82;10.15;;;12.00;71.10;13.60;101830.00;;;;5030413;28;20201;-78
2023/12/19 06:03:56;;;;;;;13.05;10.60;;;12.00;71.10;13.60;101831.00;;;;5030035;28;20192;-77
2023/12/19 06:06:25;;;;;;;11.82;9.82;;;12.00;71.20;13.70;101831.00;;;;5029733;28;20567;-77
2023/12/19 06:08:52;;;;;;;12.40;10.27;;;12.00;71.20;13.70;101838.00;;;;5031257;28;20204;-78
2023/12/19 06:11:27;;;;;;;11.10;9.63;;;12.00;71.10;13.60;101827.00;;;;5030481;28;20580;-78
2023/12/19 06:13:54;;;;;;;13.98;10.80;;;12.00;71.20;13.70;101820.00;;;;5029854;28;20188;-78
2023/12/19 06:16:22;;;;;;;11.23;9.45;;;12.10;71.30;13.70;101824.00;;;;5026752;28;20196;-78
2023/12/19 06:18:49;;;;;;;11.95;9.38;;;12.10;71.10;13.70;101809.00;;;;5020266;28;20215;-78
2023/12/19 06:21:18;;;;;;;10.80;9.27;;;12.10;71.80;13.80;101807.00;;;;5030467;28;20196;-77
2023/12/19 06:23:48;;;;;;;10.55;7.70;;;12.10;71.00;13.70;101807.00;;;;5026706;28;20195;-78
2023/12/19 06:26:16;;;;;;;13.32;8.15;;;12.10;71.00;13.70;101811.00;;;;5029040;28;20227;-77
2023/12/19 06:28:43;;;;;;;11.30;9.38;;;12.10;71.10;13.80;101810.00;;;;5029399;28;20193;-77
2023/12/19 06:31:10;;;;;;;10.40;8.70;;;12.20;71.20;13.80;101807.00;;;;5030853;28;20715;-77
2023/12/19 06:33:37;;;;;;;9.60;8.32;;;12.20;71.10;13.80;101802.00;;;;5030820;28;20200;-78
2023/12/19 06:36:05;;;;;;;9.57;7.97;;;12.20;71.10;13.80;101802.00;;;;5030455;28;20741;-78
2023/12/19 06:38:32;;;;;;;10.15;8.50;;;12.20;71.10;13.80;101803.00;;;;5030472;28;20204;-79
2023/12/19 06:41:03;;;;;;;11.02;8.65;;;12.20;71.10;13.80;101794.00;;;;5027057;28;20641;-77
2023/12/19 06:43:29;;;;;;;9.35;8.07;;;12.20;71.10;13.80;101798.00;;;;5018587;28;20211;-77
2023/12/19 06:45:56;;;;;;;9.40;8.13;;;12.20;71.10;13.80;101788.00;;;;5026682;28;20227;-77
2023/12/19 06:48:24;;;;;;;10.50;9.05;;;12.20;71.00;13.80;101783.00;;;;5028056;28;20205;-77
2023/12/19 06:50:51;;;;;;;10.35;8.80;;;12.20;71.00;13.80;101787.00;;;;5029457;28;20196;-77
2023/12/19 06:53:18;;;;;;;10.50;8.90;;;12.20;71.00;13.80;101791.00;;;;5028179;28;20199;-77
2023/12/19 06:55:45;;;;;;;11.65;9.27;;;12.20;71.00;13.90;101790.00;;;;5029584;28;20655;-77
2023/12/19 06:58:13;;;;;;;12.85;9.48;;;12.20;70.90;13.80;101784.00;;;;5034438;28;20239;-77
2023/12/19 07:00:40;;;;;;;10.05;8.93;;;12.20;70.90;13.80;101793.00;;;;5028163;28;20682;-77
2023/12/19 07:03:07;;;;;;;11.35;9.57;;;12.20;70.80;13.80;101788.00;;;;5028333;28;20854;-77
2023/12/19 07:05:35;;;;;;;10.60;8.73;;;12.20;70.90;13.80;101780.00;;;;5029064;28;20220;-76
2023/12/19 07:08:02;;;;;;;11.45;9.23;;;12.20;71.00;13.90;101771.00;;;;5029421;28;20834;-77
2023/12/19 07:10:29;;;;;;;11.23;9.82;;;12.20;71.00;13.90;101765.00;;;;5028029;28;20204;-77
2023/12/19 07:12:56;;;;;;;10.82;9.40;;;12.20;71.00;13.90;101762.00;;;;5021890;28;20201;-76
2023/12/19 07:15:24;;;;;;;12.90;9.68;;;12.20;71.00;13.90;101764.00;;;;5012881;28;21974;-77
2023/12/19 07:17:51;;;;;;;12.95;10.40;;;12.30;71.10;13.90;101767.00;;;;5028573;28;20204;-76
2023/12/19 07:20:18;;;;;;;15.77;10.93;;;12.20;71.00;13.90;101772.00;;;;5027834;28;20204;-77
2023/12/19 07:22:45;;;;;;;12.52;9.20;;;12.30;71.10;13.90;101765.00;;;;5023456;28;20197;-76
2023/12/19 07:25:13;;;;;;;13.32;10.40;;;12.30;71.20;13.90;101757.00;;;;5025706;28;20216;-77
2023/12/19 07:27:40;;;;;;;13.20;11.43;;;12.30;71.20;13.90;101766.00;;;;5028584;28;20602;-77
2023/12/19 07:30:09;;;;;;;14.43;11.15;;;12.30;71.20;13.90;101757.00;;;;5030182;28;20196;-77
2023/12/19 07:32:37;;;;;;;14.27;11.23;;;12.30;71.30;13.90;101775.00;;;;5029476;28;20208;-76
2023/12/19 07:35:06;;;;;;;15.65;10.90;;;12.30;71.30;13.90;101770.00;;;;5028437;28;20188;-76
2023/12/19 07:37:33;;;;;;;14.45;10.45;;;12.30;71.30;13.90;101763.00;;;;5023587;28;20204;-77
2023/12/19 07:40:00;;;;;;;14.00;11.57;;;12.30;71.30;13.90;101769.00;;;;5021550;28;20204;-77
2023/12/19 07:42:27;;;;;;;17.10;12.48;;;12.30;71.30;14.00;101767.00;;;;5027608;28;20199;-76
2023/12/19 07:44:54;;;;;;;15.40;11.93;;;12.40;71.40;14.00;101760.00;;;;5029164;28;20219;-77
2023/12/19 07:47:22;;;;;;;14.82;11.55;;;12.40;71.40;14.00;101756.00;;;;5020346;28;20818;-76
2023/12/19 07:49:50;;;;;;;14.85;11.00;;;12.40;71.40;14.00;101758.00;;;;5018936;28;20662;-77
2023/12/19 07:52:17;;;;;;;14.98;11.73;;;12.40;71.40;14.00;101754.00;;;;5027350;28;20196;-77
2023/12/19 07:54:44;;;;;;;17.25;11.88;;;12.40;71.40;14.00;101746.00;;;;5036474;28;20678;-77
2023/12/19 07:57:11;;;;;;;15.50;11.98;;;12.40;71.50;14.00;101757.00;;;;5027234;28;20204;-77
2023/12/19 07:59:39;;;;;;;19.08;12.05;;;12.40;71.50;14.00;101751.00;;;;5027724;28;20216;-77
2023/12/19 08:02:07;;;;;;;12.48;10.10;;;12.40;71.50;14.00;101747.00;;;;5023525;28;20203;-77
2023/12/19 08:04:34;;;;;;;17.15;11.60;;;12.40;71.40;14.00;101743.00;;;;5028398;28;20211;-77
2023/12/19 08:07:04;;;;;;;15.25;10.10;;;12.50;71.50;14.10;101737.00;;;;5021755;28;20200;-77
2023/12/19 08:09:31;;;;;;;14.60;11.30;;;12.50;71.50;14.10;101738.00;;;;5021443;28;20232;-77
2023/12/19 08:11:58;;;;;;;13.13;10.57;;;12.50;71.50;14.10;101735.00;;;;5027916;28;20197;-77
2023/12/19 08:14:25;;;;;;;13.48;11.35;;;12.50;71.50;14.10;101732.00;;;;5027025;28;20565;-77
2023/12/19 08:16:52;;;;;;;17.45;12.13;;;12.50;71.50;14.10;101732.00;;;;5008874;28;20205;-77
2023/12/19 08:19:19;;;;;;;15.90;11.15;;;12.50;71.50;14.10;101727.00;;;;5008208;28;20196;-77
2023/12/19 08:21:49;;;;;;;15.55;10.60;;;12.50;71.40;14.10;101736.00;;;;5022364;28;20199;-77
2023/12/19 08:24:18;;;;;;;14.98;11.05;;;12.50;71.40;14.10;101720.00;;;;5019270;28;20204;-77
2023/12/19 08:26:47;;;;;;;14.25;10.82;;;12.50;71.40;14.10;101718.00;;;;5028128;28;20600;-77
2023/12/19 08:29:14;;;;;;;19.85;11.73;;;12.50;71.40;14.10;101721.00;;;;5027624;28;20200;-77
2023/12/19 08:31:42;;;;;;;16.23;11.98;;;12.50;71.40;14.10;101728.00;;;;5027693;28;20243;-77
2023/12/19 08:34:09;;;;;;;15.73;11.07;;;12.60;71.50;14.10;101724.00;;;;5021580;28;20197;-76
2023/12/19 08:36:36;;;;;;;15.10;10.73;;;12.60;71.50;14.10;101719.00;;;;5027426;28;20189;-77
2023/12/19 08:39:07;;;;;;;13.70;11.02;;;12.50;71.40;14.20;101716.00;;;;5026767;28;20212;-77
2023/12/19 08:41:35;;;;;;;15.98;11.13;;;12.60;71.60;14.20;101714.00;;;;5034943;28;20554;-77
2023/12/19 08:44:02;;;;;;;12.85;9.95;;;12.60;71.60;14.20;101719.00;;;;5025737;28;20295;-77
2023/12/19 08:46:29;;;;;;;15.88;9.80;;;12.60;71.60;14.20;101717.00;;;;5022353;28;20238;-77
2023/12/19 08:48:56;;;;;;;12.75;10.27;;;12.60;71.60;14.20;101715.00;;;;5031923;28;20253;-77
2023/12/19 08:51:23;;;;;;;14.98;10.88;;;12.60;71.60;14.30;101708.00;;;;5026271;28;20721;-77
2023/12/19 08:53:50;;;;;;;14.05;10.10;;;12.70;71.70;14.30;101702.00;;;;5026450;28;20757;-77
2023/12/19 08:56:17;;;;;;;13.52;10.65;;;12.70;71.60;14.30;101700.00;;;;5026934;28;20199;-77
2023/12/19 08:58:48;;;;;;;17.10;10.00;;;12.70;71.60;14.30;101705.00;;;;5026179;28;20224;-77
2023/12/19 09:01:16;;;;;;;14.57;10.38;;;12.70;71.50;14.30;101693.00;;;;5026551;28;20200;-77
2023/12/19 09:03:43;;;;;;;15.27;11.25;;;12.70;71.50;14.30;101690.00;;;;5024066;28;20215;-78
2023/12/19 09:06:11;;;;;;;14.07;10.25;;;12.70;71.50;14.30;101699.00;;;;5016246;28;20771;-77
2023/12/19 09:08:37;;;;;;;16.02;10.82;;;12.70;71.50;14.30;101689.00;;;;5024149;28;20207;-78
2023/12/19 09:11:05;;;;;;;11.80;10.27;;;12.70;71.50;14.30;101684.00;;;;5014224;28;20200;-77
2023/12/19 09:13:33;;;;;;;13.70;10.48;;;12.70;71.50;14.30;101690.00;;;;5027106;28;20212;-77
2023/12/19 09:16:04;;;;;;;11.98;9.75;;;12.70;71.40;14.30;101684.00;;;;5026338;28;20420;-77
2023/12/19 09:18:31;;;;;;;13.82;10.70;;;12.70;71.40;14.30;101693.00;;;;5026086;28;20382;-78
2023/12/19 09:20:58;;;;;;;13.40;10.35;;;12.70;71.40;14.30;101695.00;;;;5026399;28;20211;-77
2023/12/19 09:23:25;;;;;;;14.13;10.10;;;12.70;71.40;14.40;101687.00;;;;5024195;28;20658;-77
2023/12/19 09:25:52;;;;;;;11.50;9.93;;;12.70;71.40;14.40;101679.00;;;;5012748;28;20545;-77
2023/12/19 09:28:19;;;;;;;12.15;9.10;;;12.70;71.40;14.30;101678.00;;;;5017174;28;20655;-78
2023/12/19 09:30:45;;;;;;;13.80;9.60;;;12.80;71.40;14.40;101690.00;;;;5025203;28;20210;-77
2023/12/19 09:33:14;;;;;;;11.93;8.80;;;12.70;71.30;14.30;101671.00;;;;5020472;28;20196;-77
2023/12/19 09:35:41;;;;;;;13.30;9.98;;;12.70;71.30;14.40;101679.00;;;;5027036;28;20200;-78
2023/12/19 09:38:08;;;;;;;12.30;8.93;;;12.70;71.30;14.40;101679.00;;;;5022795;28;20209;-78
2023/12/19 09:40:35;;;;;;;11.15;8.57;;;12.80;71.40;14.40;101662.00;;;;5025341;28;20568;-77
2023/12/19 09:43:03;;;;;;;12.50;9.95;;;12.80;71.30;14.30;101674.00;;;;5022620;28;20196;-77
2023/12/19 09:45:30;;;;;;;11.02;9.13;;;12.80;71.30;14.30;101669.00;;;;5023704;28;20641;-78
2023/12/19 09:48:01;;;;;;;13.65;9.90;;;12.80;71.80;14.30;101660.00;;;;5026693;28;20200;-77
2023/12/19 09:50:30;;;;;;;13.65;9.60;;;12.70;71.20;14.30;101658.00;;;;5026080;28;20196;-77
2023/12/19 09:52:59;;;;;;;10.18;9.15;;;12.70;71.20;14.30;101652.00;;;;5016619;28;20329;-77
2023/12/19 09:55:28;;;;;;;10.50;8.75;;;12.70;71.20;14.30;101650.00;;;;5012702;28;20283;-77
2023/12/19 09:57:58;;;;;;;9.90;8.20;;;12.80;71.30;14.30;101647.00;;;;5023101;28;20233;-77
2023/12/19 10:00:26;;;;;;;10.65;8.13;;;12.70;71.20;14.30;101650.00;;;;5027319;28;20277;-77
2023/12/19 10:02:54;;;;;;;10.18;8.05;;;12.70;71.30;14.30;101642.00;;;;5021928;28;20201;-77
2023/12/19 10:05:21;;;;;;;8.80;7.57;;;12.70;71.30;14.30;101639.00;;;;5025101;28;20578;-77
2023/12/19 10:07:50;;;;;;;11.02;7.82;;;12.70;71.30;14.30;101639.00;;;;5026032;28;20192;-78
2023/12/19 10:10:18;;;;;;;9.02;7.18;;;12.70;71.30;14.30;101635.00;;;;5027605;28;20196;-77
2023/12/19 10:12:50;;;;;;;8.95;7.07;;;12.80;71.40;14.30;101640.00;;;;5015743;28;21087;-78
2023/12/19 10:15:17;;;;;;;10.57;7.70;;;12.70;71.40;14.30;101631.00;;;;5030233;28;20210;-77
2023/12/19 10:18:04;;;;;;;9.13;7.50;;;12.80;71.30;14.20;101614.00;;;;5028710;28;20200;-77
2023/12/19 10:20:33;;;;;;;7.13;6.35;;;12.70;71.40;14.30;101629.00;;;;5027737;28;20295;-77
2023/12/19 10:23:05;;;;;;;7.53;6.40;;;12.80;71.30;14.30;101632.00;;;;5028079;28;20270;-77
2023/12/19 10:25:32;;;;;;;11.05;7.68;;;12.70;71.30;14.30;101618.00;;;;5029146;28;20224;-78
2023/12/19 10:28:08;;;;;;;9.45;7.32;;;12.80;71.30;14.20;101621.00;;;;5028224;28;20722;-77
2023/12/19 10:30:36;;;;;;;11.20;7.40;;;12.70;71.30;14.30;101614.00;;;;5029910;28;20196;-76
2023/12/19 10:33:04;;;;;;;9.18;7.03;;;12.80;71.40;14.30;101601.00;;;;5025673;28;20200;-77
2023/12/19 10:35:38;;;;;;;7.80;6.38;;;12.80;71.40;14.20;101607.00;;;;5030204;28;20192;-77
2023/12/19 10:38:06;;;;;;;8.73;7.10;;;12.70;71.40;14.30;101596.00;;;;5029809;28;20208;-76